Aérodrome :
LOGIN :

S'inscrire | Disclaimer

   EN    FR    IT 

 










Légende :    VFR   VFR Marginal   IFR   IFR Intensif   IFR Très Intensif
Visi : 
Plafond : 
>= 8 km
>= 3000ft
5 à 8 km
1000 à 3000 ft
1500m à 5 km
500 à 1000 ft
800 à 1500m
200 à 500 ft
< 800m
< 200 ft
Symboles :   Orages  Brouillard  Fortes neiges  Fortes précipitations  Vent > 20 kt
SIGMETs :   Divers  Orages  Givrage  Turbulence  Onde Orograph.  Cendres Volcan.







- Altitude de l'aérodrome : 218 ft
- Code IATA : LBG
- Voir les cartes d'approche


LFPB - Paris / Le Bourget

DERNIER METAR :
  • 201000Z AUTO 24011KT 210V270 CAVOK 26/14 Q1011 TEMPO 24015G25KT 4000 SHRA SCT040TCU

METARs EXPIRÉS :
  • 200930Z AUTO 25010KT 220V290 CAVOK 26/14 Q1011 TEMPO 24015G25KT 4000 SHRA SCT040TCU
  • 200900Z AUTO 22011KT 190V250 CAVOK 25/13 Q1011 NOSIG
  • 200830Z AUTO 24009KT 210V280 CAVOK 25/13 Q1011 NOSIG
  • 200800Z AUTO 22009KT CAVOK 25/14 Q1011 NOSIG
  • 200730Z AUTO 22008KT 9999 FEW033 BKN190 23/14 Q1010 NOSIG
  • 200700Z AUTO 22006KT 190V260 9999 TS FEW046/// SCT070/// BKN100/// ///CB 23/14 Q1011 BECMG NSW NSC

TAF AMD TAF LFPB
Valide du 20 à 06h jusqu'au 21 à 06h UTC


200659Z 2006/2106 22010KT CAVOK
TEMPO 2007/2008 TS FEW040CB
TEMPO 2011/2017 24015G25KT
PROB40
TEMPO 2011/2015 4000 SHRA SCT040TCU
PROB30
TEMPO 2013/2015 26015G35KT TSRA SCT040CB
BECMG 2018/2020 30005KT
ATIS : +33 1 48 62 43 92
Pas de NOTAMs connus pour ce terrain.



MET'MAP, la Météo Aéronautique d'un coup d'oeil ! - Copyright ORBIFLY Décembre 2007 - Disclaimer

ORBIFLY MET'MAP TEAM :

Programmation & Développement : Alexandra Zaïnal
Conception & Développement : Baudouin d'Aumeries
Co-Programmation & Développement : Marc-Olivier Méhu
Soutien technique & logistique : Manuel Goepfert

Contact : metmap@orbifly.com




SOURCES & CREDITS :

   NOAA